sensor_id;sensor_type;location;lat;lon;timestamp;P1;durP1;ratioP1;P2;durP2;ratioP2
53040;SDS011;39326;42.650;23.248;2023-05-10T00:00:26;5.20;;;4.80;;
53040;SDS011;39326;42.650;23.248;2023-05-10T00:02:52;4.90;;;4.23;;
53040;SDS011;39326;42.650;23.248;2023-05-10T00:05:18;4.70;;;4.30;;
53040;SDS011;39326;42.650;23.248;2023-05-10T00:07:44;5.37;;;4.97;;
53040;SDS011;39326;42.650;23.248;2023-05-10T00:10:11;5.13;;;4.73;;
53040;SDS011;39326;42.650;23.248;2023-05-10T00:12:36;4.90;;;4.43;;
53040;SDS011;39326;42.650;23.248;2023-05-10T00:15:02;5.70;;;4.70;;
53040;SDS011;39326;42.650;23.248;2023-05-10T00:17:29;5.20;;;4.63;;
53040;SDS011;39326;42.650;23.248;2023-05-10T00:19:55;4.60;;;4.30;;
53040;SDS011;39326;42.650;23.248;2023-05-10T00:22:21;4.83;;;4.43;;
53040;SDS011;39326;42.650;23.248;2023-05-10T00:24:47;3.93;;;3.60;;
53040;SDS011;39326;42.650;23.248;2023-05-10T00:27:14;5.20;;;4.77;;
53040;SDS011;39326;42.650;23.248;2023-05-10T00:29:40;4.23;;;3.93;;
53040;SDS011;39326;42.650;23.248;2023-05-10T00:32:06;4.93;;;4.63;;
53040;SDS011;39326;42.650;23.248;2023-05-10T00:34:32;4.73;;;4.33;;
53040;SDS011;39326;42.650;23.248;2023-05-10T00:36:58;6.07;;;4.87;;
53040;SDS011;39326;42.650;23.248;2023-05-10T00:39:24;5.43;;;5.03;;
53040;SDS011;39326;42.650;23.248;2023-05-10T00:41:52;4.77;;;4.37;;
53040;SDS011;39326;42.650;23.248;2023-05-10T00:44:17;5.07;;;4.77;;
53040;SDS011;39326;42.650;23.248;2023-05-10T00:46:43;4.10;;;3.80;;
53040;SDS011;39326;42.650;23.248;2023-05-10T00:49:10;4.70;;;4.40;;
53040;SDS011;39326;42.650;23.248;2023-05-10T00:51:37;4.00;;;3.60;;
53040;SDS011;39326;42.650;23.248;2023-05-10T00:54:02;4.03;;;3.73;;
53040;SDS011;39326;42.650;23.248;2023-05-10T00:56:28;4.57;;;4.00;;
53040;SDS011;39326;42.650;23.248;2023-05-10T00:58:55;4.23;;;3.93;;
53040;SDS011;39326;42.650;23.248;2023-05-10T01:01:21;4.23;;;3.93;;
53040;SDS011;39326;42.650;23.248;2023-05-10T01:03:48;3.63;;;3.33;;
53040;SDS011;39326;42.650;23.248;2023-05-10T01:06:15;3.93;;;3.70;;
53040;SDS011;39326;42.650;23.248;2023-05-10T01:08:41;5.70;;;4.77;;
53040;SDS011;39326;42.650;23.248;2023-05-10T01:11:07;4.47;;;4.17;;
53040;SDS011;39326;42.650;23.248;2023-05-10T01:13:34;6.40;;;3.90;;
53040;SDS011;39326;42.650;23.248;2023-05-10T01:16:03;5.00;;;4.50;;
53040;SDS011;39326;42.650;23.248;2023-05-10T01:18:29;4.87;;;4.47;;
53040;SDS011;39326;42.650;23.248;2023-05-10T01:34:42;3.50;;;3.30;;
53040;SDS011;39326;42.650;23.248;2023-05-10T01:37:41;3.50;;;3.03;;
53040;SDS011;39326;42.650;23.248;2023-05-10T01:43:00;3.37;;;3.17;;
53040;SDS011;39326;42.650;23.248;2023-05-10T01:48:05;3.20;;;3.00;;
53040;SDS011;39326;42.650;23.248;2023-05-10T01:50:34;3.63;;;3.33;;
53040;SDS011;39326;42.650;23.248;2023-05-10T01:53:03;3.20;;;3.00;;
53040;SDS011;39326;42.650;23.248;2023-05-10T01:55:32;3.10;;;2.90;;
53040;SDS011;39326;42.650;23.248;2023-05-10T01:58:06;2.80;;;2.60;;
53040;SDS011;39326;42.650;23.248;2023-05-10T02:00:34;3.13;;;2.93;;
53040;SDS011;39326;42.650;23.248;2023-05-10T02:03:05;2.50;;;2.30;;
53040;SDS011;39326;42.650;23.248;2023-05-10T02:05:33;3.10;;;2.80;;
53040;SDS011;39326;42.650;23.248;2023-05-10T02:08:00;2.87;;;2.67;;
53040;SDS011;39326;42.650;23.248;2023-05-10T02:10:29;3.10;;;2.80;;
53040;SDS011;39326;42.650;23.248;2023-05-10T02:12:56;3.03;;;2.83;;
53040;SDS011;39326;42.650;23.248;2023-05-10T02:15:24;2.43;;;2.33;;
53040;SDS011;39326;42.650;23.248;2023-05-10T02:17:51;3.30;;;3.10;;
53040;SDS011;39326;42.650;23.248;2023-05-10T02:20:19;2.60;;;2.40;;
53040;SDS011;39326;42.650;23.248;2023-05-10T02:22:48;2.80;;;2.60;;
53040;SDS011;39326;42.650;23.248;2023-05-10T02:25:18;2.70;;;2.50;;
53040;SDS011;39326;42.650;23.248;2023-05-10T02:27:45;2.60;;;2.50;;
53040;SDS011;39326;42.650;23.248;2023-05-10T02:30:12;2.20;;;2.10;;
53040;SDS011;39326;42.650;23.248;2023-05-10T02:32:39;2.63;;;2.50;;
53040;SDS011;39326;42.650;23.248;2023-05-10T02:35:06;2.90;;;2.70;;
53040;SDS011;39326;42.650;23.248;2023-05-10T02:37:34;3.77;;;2.67;;
53040;SDS011;39326;42.650;23.248;2023-05-10T02:40:02;3.10;;;2.90;;
53040;SDS011;39326;42.650;23.248;2023-05-10T02:42:31;2.50;;;2.30;;
53040;SDS011;39326;42.650;23.248;2023-05-10T02:45:01;2.87;;;2.67;;
53040;SDS011;39326;42.650;23.248;2023-05-10T02:47:29;2.27;;;2.17;;
53040;SDS011;39326;42.650;23.248;2023-05-10T02:49:55;2.60;;;2.40;;
53040;SDS011;39326;42.650;23.248;2023-05-10T02:52:22;3.03;;;2.50;;
53040;SDS011;39326;42.650;23.248;2023-05-10T02:54:52;3.27;;;2.97;;
53040;SDS011;39326;42.650;23.248;2023-05-10T02:57:22;3.07;;;2.87;;
53040;SDS011;39326;42.650;23.248;2023-05-10T02:59:52;2.87;;;2.67;;
53040;SDS011;39326;42.650;23.248;2023-05-10T03:02:18;3.20;;;2.63;;
53040;SDS011;39326;42.650;23.248;2023-05-10T03:04:45;2.80;;;2.60;;
53040;SDS011;39326;42.650;23.248;2023-05-10T03:07:11;3.40;;;3.10;;
53040;SDS011;39326;42.650;23.248;2023-05-10T03:09:37;4.10;;;3.03;;
53040;SDS011;39326;42.650;23.248;2023-05-10T03:12:06;3.53;;;3.20;;
53040;SDS011;39326;42.650;23.248;2023-05-10T03:17:36;4.07;;;3.70;;
53040;SDS011;39326;42.650;23.248;2023-05-10T03:20:08;4.13;;;2.77;;
53040;SDS011;39326;42.650;23.248;2023-05-10T03:22:37;3.77;;;3.47;;
53040;SDS011;39326;42.650;23.248;2023-05-10T03:25:06;3.67;;;3.07;;
53040;SDS011;39326;42.650;23.248;2023-05-10T03:27:36;3.40;;;3.10;;
53040;SDS011;39326;42.650;23.248;2023-05-10T03:30:08;3.60;;;3.40;;
53040;SDS011;39326;42.650;23.248;2023-05-10T03:32:36;3.47;;;3.23;;
53040;SDS011;39326;42.650;23.248;2023-05-10T03:35:06;3.67;;;3.37;;
53040;SDS011;39326;42.650;23.248;2023-05-10T03:37:35;3.80;;;3.50;;
53040;SDS011;39326;42.650;23.248;2023-05-10T03:40:02;4.47;;;3.53;;
53040;SDS011;39326;42.650;23.248;2023-05-10T03:42:28;4.63;;;4.17;;
53040;SDS011;39326;42.650;23.248;2023-05-10T03:44:55;3.80;;;3.50;;
53040;SDS011;39326;42.650;23.248;2023-05-10T03:47:21;4.03;;;3.73;;
53040;SDS011;39326;42.650;23.248;2023-05-10T03:49:47;3.87;;;3.57;;
53040;SDS011;39326;42.650;23.248;2023-05-10T03:52:13;4.63;;;3.47;;
53040;SDS011;39326;42.650;23.248;2023-05-10T03:54:39;3.67;;;3.37;;
53040;SDS011;39326;42.650;23.248;2023-05-10T03:57:05;3.80;;;3.50;;
53040;SDS011;39326;42.650;23.248;2023-05-10T03:59:31;5.07;;;4.47;;
53040;SDS011;39326;42.650;23.248;2023-05-10T04:01:57;4.20;;;3.90;;
53040;SDS011;39326;42.650;23.248;2023-05-10T04:04:23;4.70;;;4.40;;
53040;SDS011;39326;42.650;23.248;2023-05-10T04:06:49;4.90;;;4.50;;
53040;SDS011;39326;42.650;23.248;2023-05-10T04:09:15;4.40;;;4.10;;
53040;SDS011;39326;42.650;23.248;2023-05-10T04:11:42;5.30;;;4.90;;
53040;SDS011;39326;42.650;23.248;2023-05-10T04:14:08;5.23;;;4.83;;
53040;SDS011;39326;42.650;23.248;2023-05-10T04:16:34;5.10;;;4.70;;
53040;SDS011;39326;42.650;23.248;2023-05-10T04:19:00;5.40;;;5.00;;
53040;SDS011;39326;42.650;23.248;2023-05-10T04:21:27;5.50;;;5.10;;
53040;SDS011;39326;42.650;23.248;2023-05-10T04:23:52;4.90;;;4.50;;
53040;SDS011;39326;42.650;23.248;2023-05-10T04:26:18;5.00;;;4.50;;
53040;SDS011;39326;42.650;23.248;2023-05-10T04:28:45;4.77;;;4.43;;
53040;SDS011;39326;42.650;23.248;2023-05-10T04:31:13;5.40;;;5.00;;
53040;SDS011;39326;42.650;23.248;2023-05-10T04:33:39;5.50;;;4.57;;
53040;SDS011;39326;42.650;23.248;2023-05-10T04:36:05;5.23;;;4.80;;
53040;SDS011;39326;42.650;23.248;2023-05-10T04:38:31;5.37;;;4.97;;
53040;SDS011;39326;42.650;23.248;2023-05-10T04:41:09;4.60;;;4.20;;
53040;SDS011;39326;42.650;23.248;2023-05-10T04:43:36;5.37;;;4.70;;
53040;SDS011;39326;42.650;23.248;2023-05-10T04:46:02;5.53;;;4.80;;
53040;SDS011;39326;42.650;23.248;2023-05-10T04:48:29;6.23;;;5.13;;
53040;SDS011;39326;42.650;23.248;2023-05-10T04:50:54;5.73;;;5.17;;
53040;SDS011;39326;42.650;23.248;2023-05-10T04:53:20;4.73;;;4.37;;
53040;SDS011;39326;42.650;23.248;2023-05-10T04:55:46;6.63;;;4.97;;
53040;SDS011;39326;42.650;23.248;2023-05-10T04:58:13;5.90;;;5.40;;
53040;SDS011;39326;42.650;23.248;2023-05-10T05:00:39;5.10;;;4.70;;
53040;SDS011;39326;42.650;23.248;2023-05-10T05:03:05;6.27;;;5.67;;
53040;SDS011;39326;42.650;23.248;2023-05-10T05:05:31;6.77;;;6.20;;
53040;SDS011;39326;42.650;23.248;2023-05-10T05:07:57;5.87;;;5.37;;
53040;SDS011;39326;42.650;23.248;2023-05-10T05:10:23;5.90;;;5.33;;
53040;SDS011;39326;42.650;23.248;2023-05-10T05:12:49;5.37;;;4.97;;
53040;SDS011;39326;42.650;23.248;2023-05-10T05:15:15;6.80;;;6.30;;
53040;SDS011;39326;42.650;23.248;2023-05-10T05:17:42;5.97;;;5.47;;
53040;SDS011;39326;42.650;23.248;2023-05-10T05:20:08;5.57;;;4.87;;
53040;SDS011;39326;42.650;23.248;2023-05-10T05:22:35;5.20;;;4.80;;
53040;SDS011;39326;42.650;23.248;2023-05-10T05:25:02;4.53;;;4.23;;
53040;SDS011;39326;42.650;23.248;2023-05-10T05:27:28;6.00;;;5.47;;
53040;SDS011;39326;42.650;23.248;2023-05-10T05:29:55;5.20;;;4.70;;
53040;SDS011;39326;42.650;23.248;2023-05-10T05:32:21;5.10;;;4.70;;
53040;SDS011;39326;42.650;23.248;2023-05-10T05:34:47;5.67;;;5.27;;
53040;SDS011;39326;42.650;23.248;2023-05-10T05:37:16;5.20;;;4.80;;
53040;SDS011;39326;42.650;23.248;2023-05-10T05:39:45;5.67;;;5.27;;
53040;SDS011;39326;42.650;23.248;2023-05-10T05:42:11;5.93;;;5.53;;
53040;SDS011;39326;42.650;23.248;2023-05-10T05:44:38;6.70;;;6.10;;
53040;SDS011;39326;42.650;23.248;2023-05-10T05:47:04;6.80;;;6.10;;
53040;SDS011;39326;42.650;23.248;2023-05-10T05:49:31;6.63;;;6.13;;
53040;SDS011;39326;42.650;23.248;2023-05-10T05:52:00;7.90;;;7.10;;
53040;SDS011;39326;42.650;23.248;2023-05-10T05:54:26;8.07;;;7.47;;
53040;SDS011;39326;42.650;23.248;2023-05-10T05:56:56;9.30;;;6.87;;
53040;SDS011;39326;42.650;23.248;2023-05-10T05:59:23;8.10;;;7.40;;
53040;SDS011;39326;42.650;23.248;2023-05-10T06:01:49;8.10;;;7.40;;
53040;SDS011;39326;42.650;23.248;2023-05-10T06:04:15;9.07;;;8.37;;
53040;SDS011;39326;42.650;23.248;2023-05-10T06:06:42;8.43;;;7.70;;
53040;SDS011;39326;42.650;23.248;2023-05-10T06:09:08;9.03;;;7.73;;
53040;SDS011;39326;42.650;23.248;2023-05-10T06:11:35;8.53;;;7.73;;
53040;SDS011;39326;42.650;23.248;2023-05-10T06:14:02;9.03;;;8.30;;
53040;SDS011;39326;42.650;23.248;2023-05-10T06:16:29;9.87;;;8.87;;
53040;SDS011;39326;42.650;23.248;2023-05-10T06:18:56;8.23;;;7.50;;
53040;SDS011;39326;42.650;23.248;2023-05-10T06:21:23;8.90;;;8.10;;
53040;SDS011;39326;42.650;23.248;2023-05-10T06:23:48;11.27;;;9.33;;
53040;SDS011;39326;42.650;23.248;2023-05-10T06:26:15;8.93;;;8.13;;
53040;SDS011;39326;42.650;23.248;2023-05-10T06:28:41;9.40;;;8.53;;
53040;SDS011;39326;42.650;23.248;2023-05-10T06:31:07;8.43;;;7.67;;
53040;SDS011;39326;42.650;23.248;2023-05-10T06:33:33;9.53;;;8.73;;
53040;SDS011;39326;42.650;23.248;2023-05-10T06:35:59;9.00;;;8.20;;
53040;SDS011;39326;42.650;23.248;2023-05-10T06:38:25;10.17;;;9.17;;
53040;SDS011;39326;42.650;23.248;2023-05-10T06:40:51;8.23;;;7.43;;
53040;SDS011;39326;42.650;23.248;2023-05-10T06:43:17;9.93;;;9.03;;
53040;SDS011;39326;42.650;23.248;2023-05-10T06:45:44;10.37;;;9.37;;
53040;SDS011;39326;42.650;23.248;2023-05-10T06:48:11;10.37;;;9.37;;
53040;SDS011;39326;42.650;23.248;2023-05-10T06:50:37;9.73;;;8.87;;
53040;SDS011;39326;42.650;23.248;2023-05-10T06:53:03;10.10;;;9.10;;
53040;SDS011;39326;42.650;23.248;2023-05-10T06:55:29;10.73;;;9.63;;
53040;SDS011;39326;42.650;23.248;2023-05-10T06:57:55;10.17;;;9.27;;
53040;SDS011;39326;42.650;23.248;2023-05-10T07:00:21;10.53;;;9.60;;
53040;SDS011;39326;42.650;23.248;2023-05-10T07:02:47;9.53;;;8.73;;
53040;SDS011;39326;42.650;23.248;2023-05-10T07:05:13;10.77;;;9.77;;
53040;SDS011;39326;42.650;23.248;2023-05-10T07:07:40;9.00;;;8.20;;
53040;SDS011;39326;42.650;23.248;2023-05-10T07:10:06;9.40;;;8.50;;
53040;SDS011;39326;42.650;23.248;2023-05-10T07:12:33;10.17;;;9.10;;
53040;SDS011;39326;42.650;23.248;2023-05-10T07:15:00;10.97;;;9.93;;
53040;SDS011;39326;42.650;23.248;2023-05-10T07:17:26;9.27;;;8.40;;
53040;SDS011;39326;42.650;23.248;2023-05-10T07:19:52;9.67;;;8.73;;
53040;SDS011;39326;42.650;23.248;2023-05-10T07:22:18;9.73;;;8.83;;
53040;SDS011;39326;42.650;23.248;2023-05-10T07:24:44;9.53;;;8.63;;
53040;SDS011;39326;42.650;23.248;2023-05-10T07:27:10;9.10;;;8.30;;
53040;SDS011;39326;42.650;23.248;2023-05-10T07:29:36;9.40;;;8.50;;
53040;SDS011;39326;42.650;23.248;2023-05-10T07:32:02;10.10;;;9.30;;
53040;SDS011;39326;42.650;23.248;2023-05-10T07:34:28;9.57;;;8.67;;
53040;SDS011;39326;42.650;23.248;2023-05-10T07:36:56;10.97;;;9.97;;
53040;SDS011;39326;42.650;23.248;2023-05-10T07:39:24;10.83;;;8.67;;
53040;SDS011;39326;42.650;23.248;2023-05-10T07:41:50;9.03;;;7.97;;
53040;SDS011;39326;42.650;23.248;2023-05-10T07:44:16;10.33;;;9.20;;
53040;SDS011;39326;42.650;23.248;2023-05-10T07:46:44;9.93;;;9.03;;
53040;SDS011;39326;42.650;23.248;2023-05-10T07:49:10;9.53;;;8.63;;
53040;SDS011;39326;42.650;23.248;2023-05-10T07:51:36;9.37;;;8.57;;
53040;SDS011;39326;42.650;23.248;2023-05-10T07:54:02;9.83;;;8.93;;
53040;SDS011;39326;42.650;23.248;2023-05-10T07:56:29;9.00;;;8.20;;
53040;SDS011;39326;42.650;23.248;2023-05-10T07:58:57;10.83;;;8.90;;
53040;SDS011;39326;42.650;23.248;2023-05-10T08:01:24;7.57;;;6.70;;
53040;SDS011;39326;42.650;23.248;2023-05-10T08:03:50;9.40;;;8.70;;
53040;SDS011;39326;42.650;23.248;2023-05-10T08:06:19;10.70;;;9.67;;
53040;SDS011;39326;42.650;23.248;2023-05-10T08:08:46;10.73;;;8.73;;
53040;SDS011;39326;42.650;23.248;2023-05-10T08:11:17;9.97;;;9.07;;
53040;SDS011;39326;42.650;23.248;2023-05-10T08:13:43;11.30;;;9.07;;
53040;SDS011;39326;42.650;23.248;2023-05-10T08:16:10;10.33;;;9.43;;
53040;SDS011;39326;42.650;23.248;2023-05-10T08:18:36;10.53;;;9.63;;
53040;SDS011;39326;42.650;23.248;2023-05-10T08:21:02;11.73;;;10.63;;
53040;SDS011;39326;42.650;23.248;2023-05-10T08:23:29;11.93;;;10.40;;
53040;SDS011;39326;42.650;23.248;2023-05-10T08:25:55;9.90;;;9.00;;
53040;SDS011;39326;42.650;23.248;2023-05-10T08:28:21;11.43;;;10.43;;
53040;SDS011;39326;42.650;23.248;2023-05-10T08:30:47;7.93;;;7.13;;
53040;SDS011;39326;42.650;23.248;2023-05-10T08:33:13;10.10;;;9.30;;
53040;SDS011;39326;42.650;23.248;2023-05-10T08:35:39;9.27;;;8.47;;
53040;SDS011;39326;42.650;23.248;2023-05-10T08:38:05;10.33;;;9.43;;
53040;SDS011;39326;42.650;23.248;2023-05-10T08:40:31;12.53;;;9.13;;
53040;SDS011;39326;42.650;23.248;2023-05-10T08:43:04;9.60;;;8.80;;
53040;SDS011;39326;42.650;23.248;2023-05-10T08:45:32;10.53;;;9.63;;
53040;SDS011;39326;42.650;23.248;2023-05-10T08:48:01;9.67;;;8.77;;
53040;SDS011;39326;42.650;23.248;2023-05-10T08:50:27;9.33;;;8.43;;
53040;SDS011;39326;42.650;23.248;2023-05-10T08:52:55;10.20;;;9.30;;
53040;SDS011;39326;42.650;23.248;2023-05-10T08:55:24;10.50;;;9.63;;
53040;SDS011;39326;42.650;23.248;2023-05-10T08:57:51;9.83;;;9.03;;
53040;SDS011;39326;42.650;23.248;2023-05-10T09:00:17;10.27;;;9.37;;
53040;SDS011;39326;42.650;23.248;2023-05-10T09:02:45;8.17;;;6.93;;
53040;SDS011;39326;42.650;23.248;2023-05-10T09:05:12;10.77;;;9.87;;
53040;SDS011;39326;42.650;23.248;2023-05-10T09:07:37;9.80;;;8.90;;
53040;SDS011;39326;42.650;23.248;2023-05-10T09:10:04;9.37;;;8.47;;
53040;SDS011;39326;42.650;23.248;2023-05-10T09:12:30;9.27;;;8.37;;
53040;SDS011;39326;42.650;23.248;2023-05-10T09:14:58;10.57;;;9.60;;
53040;SDS011;39326;42.650;23.248;2023-05-10T09:17:25;8.33;;;7.53;;
53040;SDS011;39326;42.650;23.248;2023-05-10T09:20:00;9.47;;;8.57;;
53040;SDS011;39326;42.650;23.248;2023-05-10T09:22:32;9.47;;;8.57;;
53040;SDS011;39326;42.650;23.248;2023-05-10T09:25:08;11.47;;;10.37;;
53040;SDS011;39326;42.650;23.248;2023-05-10T09:27:39;27.57;;;12.53;;
53040;SDS011;39326;42.650;23.248;2023-05-10T09:30:06;11.33;;;9.87;;
53040;SDS011;39326;42.650;23.248;2023-05-10T09:32:43;10.97;;;9.97;;
53040;SDS011;39326;42.650;23.248;2023-05-10T09:35:15;10.47;;;9.47;;
53040;SDS011;39326;42.650;23.248;2023-05-10T09:37:44;9.43;;;8.53;;
53040;SDS011;39326;42.650;23.248;2023-05-10T09:42:41;26.17;;;14.20;;
53040;SDS011;39326;42.650;23.248;2023-05-10T09:45:16;14.00;;;11.37;;
53040;SDS011;39326;42.650;23.248;2023-05-10T09:47:42;142.53;;;42.53;;
53040;SDS011;39326;42.650;23.248;2023-05-10T09:50:08;17.10;;;11.00;;
53040;SDS011;39326;42.650;23.248;2023-05-10T09:52:51;11.17;;;10.07;;
53040;SDS011;39326;42.650;23.248;2023-05-10T09:58:03;11.00;;;10.10;;
53040;SDS011;39326;42.650;23.248;2023-05-10T10:00:37;9.67;;;8.77;;
53040;SDS011;39326;42.650;23.248;2023-05-10T10:03:11;8.97;;;7.57;;
53040;SDS011;39326;42.650;23.248;2023-05-10T10:05:39;8.40;;;7.13;;
53040;SDS011;39326;42.650;23.248;2023-05-10T10:08:07;8.67;;;7.90;;
53040;SDS011;39326;42.650;23.248;2023-05-10T10:10:33;7.50;;;6.83;;
53040;SDS011;39326;42.650;23.248;2023-05-10T10:12:59;9.60;;;8.80;;
53040;SDS011;39326;42.650;23.248;2023-05-10T10:15:25;9.13;;;8.33;;
53040;SDS011;39326;42.650;23.248;2023-05-10T10:17:51;8.07;;;6.93;;
53040;SDS011;39326;42.650;23.248;2023-05-10T10:20:18;9.10;;;8.17;;
53040;SDS011;39326;42.650;23.248;2023-05-10T10:22:46;9.33;;;8.63;;
53040;SDS011;39326;42.650;23.248;2023-05-10T10:25:12;9.07;;;8.37;;
53040;SDS011;39326;42.650;23.248;2023-05-10T10:35:34;10.50;;;9.67;;
53040;SDS011;39326;42.650;23.248;2023-05-10T10:38:01;11.07;;;10.07;;
53040;SDS011;39326;42.650;23.248;2023-05-10T10:40:28;8.73;;;7.93;;
53040;SDS011;39326;42.650;23.248;2023-05-10T10:42:58;9.60;;;8.97;;
53040;SDS011;39326;42.650;23.248;2023-05-10T10:45:44;9.67;;;8.87;;
53040;SDS011;39326;42.650;23.248;2023-05-10T10:48:34;9.60;;;8.80;;
53040;SDS011;39326;42.650;23.248;2023-05-10T10:51:00;9.20;;;8.50;;
53040;SDS011;39326;42.650;23.248;2023-05-10T10:53:27;8.33;;;7.63;;
53040;SDS011;39326;42.650;23.248;2023-05-10T10:56:10;8.27;;;7.53;;
53040;SDS011;39326;42.650;23.248;2023-05-10T10:58:38;8.93;;;8.13;;
53040;SDS011;39326;42.650;23.248;2023-05-10T11:01:15;9.43;;;8.63;;
53040;SDS011;39326;42.650;23.248;2023-05-10T11:04:17;9.70;;;9.00;;
53040;SDS011;39326;42.650;23.248;2023-05-10T11:06:43;8.70;;;8.10;;
53040;SDS011;39326;42.650;23.248;2023-05-10T11:09:10;7.67;;;6.97;;
53040;SDS011;39326;42.650;23.248;2023-05-10T11:11:53;8.20;;;7.50;;
53040;SDS011;39326;42.650;23.248;2023-05-10T11:14:23;9.07;;;8.37;;
53040;SDS011;39326;42.650;23.248;2023-05-10T11:16:49;9.40;;;8.67;;
53040;SDS011;39326;42.650;23.248;2023-05-10T11:19:15;9.23;;;8.43;;
53040;SDS011;39326;42.650;23.248;2023-05-10T11:24:55;8.40;;;7.70;;
53040;SDS011;39326;42.650;23.248;2023-05-10T11:27:21;8.13;;;7.53;;
53040;SDS011;39326;42.650;23.248;2023-05-10T11:29:50;8.03;;;7.43;;
53040;SDS011;39326;42.650;23.248;2023-05-10T11:32:16;9.10;;;8.43;;
53040;SDS011;39326;42.650;23.248;2023-05-10T11:34:42;8.97;;;8.27;;
53040;SDS011;39326;42.650;23.248;2023-05-10T11:37:13;9.23;;;8.33;;
53040;SDS011;39326;42.650;23.248;2023-05-10T11:39:38;9.57;;;8.67;;
53040;SDS011;39326;42.650;23.248;2023-05-10T11:42:03;10.90;;;6.17;;
53040;SDS011;39326;42.650;23.248;2023-05-10T11:44:32;8.70;;;8.10;;
53040;SDS011;39326;42.650;23.248;2023-05-10T11:46:58;9.57;;;8.73;;
53040;SDS011;39326;42.650;23.248;2023-05-10T11:49:25;9.00;;;8.20;;
53040;SDS011;39326;42.650;23.248;2023-05-10T11:51:51;9.53;;;8.83;;
53040;SDS011;39326;42.650;23.248;2023-05-10T11:54:16;8.23;;;7.63;;
53040;SDS011;39326;42.650;23.248;2023-05-10T11:56:42;9.07;;;8.33;;
53040;SDS011;39326;42.650;23.248;2023-05-10T11:59:07;8.47;;;7.63;;
53040;SDS011;39326;42.650;23.248;2023-05-10T12:01:33;9.07;;;8.17;;
53040;SDS011;39326;42.650;23.248;2023-05-10T12:03:58;8.57;;;7.83;;
53040;SDS011;39326;42.650;23.248;2023-05-10T12:06:28;8.90;;;8.00;;
53040;SDS011;39326;42.650;23.248;2023-05-10T12:08:56;8.77;;;8.03;;
53040;SDS011;39326;42.650;23.248;2023-05-10T12:11:24;8.37;;;7.77;;
53040;SDS011;39326;42.650;23.248;2023-05-10T12:13:50;9.60;;;8.90;;
53040;SDS011;39326;42.650;23.248;2023-05-10T12:16:17;9.67;;;8.83;;
53040;SDS011;39326;42.650;23.248;2023-05-10T12:18:44;9.40;;;8.60;;
53040;SDS011;39326;42.650;23.248;2023-05-10T12:21:10;9.13;;;8.43;;
53040;SDS011;39326;42.650;23.248;2023-05-10T12:23:40;9.30;;;8.50;;
53040;SDS011;39326;42.650;23.248;2023-05-10T12:26:08;8.93;;;8.23;;
53040;SDS011;39326;42.650;23.248;2023-05-10T12:28:35;8.93;;;8.23;;
53040;SDS011;39326;42.650;23.248;2023-05-10T12:31:01;9.30;;;8.47;;
53040;SDS011;39326;42.650;23.248;2023-05-10T12:33:27;9.67;;;8.97;;
53040;SDS011;39326;42.650;23.248;2023-05-10T12:36:01;10.10;;;9.07;;
53040;SDS011;39326;42.650;23.248;2023-05-10T12:38:46;9.50;;;8.67;;
53040;SDS011;39326;42.650;23.248;2023-05-10T12:41:17;9.80;;;8.90;;
53040;SDS011;39326;42.650;23.248;2023-05-10T12:43:43;10.10;;;9.20;;
53040;SDS011;39326;42.650;23.248;2023-05-10T12:46:11;9.20;;;8.37;;
53040;SDS011;39326;42.650;23.248;2023-05-10T12:48:38;11.30;;;9.33;;
53040;SDS011;39326;42.650;23.248;2023-05-10T12:51:05;10.97;;;9.97;;
53040;SDS011;39326;42.650;23.248;2023-05-10T12:53:34;9.63;;;8.77;;
53040;SDS011;39326;42.650;23.248;2023-05-10T12:56:00;10.60;;;9.63;;
53040;SDS011;39326;42.650;23.248;2023-05-10T12:58:26;10.40;;;9.50;;
53040;SDS011;39326;42.650;23.248;2023-05-10T13:00:51;10.50;;;9.60;;
53040;SDS011;39326;42.650;23.248;2023-05-10T13:03:17;11.40;;;10.47;;
53040;SDS011;39326;42.650;23.248;2023-05-10T13:05:43;10.87;;;9.77;;
53040;SDS011;39326;42.650;23.248;2023-05-10T13:08:09;10.10;;;9.13;;
53040;SDS011;39326;42.650;23.248;2023-05-10T13:10:34;8.90;;;8.03;;
53040;SDS011;39326;42.650;23.248;2023-05-10T13:13:00;8.97;;;8.10;;
53040;SDS011;39326;42.650;23.248;2023-05-10T13:15:25;9.90;;;9.00;;
53040;SDS011;39326;42.650;23.248;2023-05-10T13:17:51;9.47;;;8.63;;
53040;SDS011;39326;42.650;23.248;2023-05-10T13:20:17;10.40;;;9.50;;
53040;SDS011;39326;42.650;23.248;2023-05-10T13:22:43;12.20;;;10.37;;
53040;SDS011;39326;42.650;23.248;2023-05-10T13:25:10;11.23;;;10.13;;
53040;SDS011;39326;42.650;23.248;2023-05-10T13:27:36;9.73;;;8.83;;
53040;SDS011;39326;42.650;23.248;2023-05-10T13:30:03;10.80;;;9.73;;
53040;SDS011;39326;42.650;23.248;2023-05-10T13:32:29;9.37;;;8.67;;
53040;SDS011;39326;42.650;23.248;2023-05-10T13:34:55;8.97;;;8.23;;
53040;SDS011;39326;42.650;23.248;2023-05-10T13:37:21;8.93;;;8.23;;
53040;SDS011;39326;42.650;23.248;2023-05-10T13:39:47;9.50;;;8.70;;
53040;SDS011;39326;42.650;23.248;2023-05-10T13:42:13;9.30;;;8.40;;
53040;SDS011;39326;42.650;23.248;2023-05-10T13:44:39;10.83;;;9.93;;
53040;SDS011;39326;42.650;23.248;2023-05-10T13:47:05;10.37;;;9.47;;
53040;SDS011;39326;42.650;23.248;2023-05-10T13:49:30;10.83;;;9.77;;
53040;SDS011;39326;42.650;23.248;2023-05-10T13:51:56;9.57;;;8.67;;
53040;SDS011;39326;42.650;23.248;2023-05-10T13:54:22;10.73;;;9.73;;
53040;SDS011;39326;42.650;23.248;2023-05-10T13:56:48;9.20;;;8.33;;
53040;SDS011;39326;42.650;23.248;2023-05-10T13:59:14;10.13;;;9.20;;
53040;SDS011;39326;42.650;23.248;2023-05-10T14:01:40;9.97;;;9.07;;
53040;SDS011;39326;42.650;23.248;2023-05-10T14:04:07;9.23;;;8.37;;
53040;SDS011;39326;42.650;23.248;2023-05-10T14:06:37;10.37;;;9.40;;
53040;SDS011;39326;42.650;23.248;2023-05-10T14:09:03;10.10;;;9.10;;
53040;SDS011;39326;42.650;23.248;2023-05-10T14:11:29;9.40;;;8.60;;
53040;SDS011;39326;42.650;23.248;2023-05-10T14:13:55;10.03;;;8.97;;
53040;SDS011;39326;42.650;23.248;2023-05-10T14:16:20;9.67;;;8.90;;
53040;SDS011;39326;42.650;23.248;2023-05-10T14:18:46;9.57;;;8.77;;
53040;SDS011;39326;42.650;23.248;2023-05-10T14:21:12;8.70;;;7.90;;
53040;SDS011;39326;42.650;23.248;2023-05-10T14:23:38;9.53;;;8.27;;
53040;SDS011;39326;42.650;23.248;2023-05-10T14:26:04;8.70;;;7.97;;
53040;SDS011;39326;42.650;23.248;2023-05-10T14:28:30;8.37;;;7.67;;
53040;SDS011;39326;42.650;23.248;2023-05-10T14:30:55;8.77;;;8.07;;
53040;SDS011;39326;42.650;23.248;2023-05-10T14:33:21;10.30;;;9.40;;
53040;SDS011;39326;42.650;23.248;2023-05-10T14:35:47;10.97;;;9.03;;
53040;SDS011;39326;42.650;23.248;2023-05-10T14:38:13;8.90;;;8.20;;
53040;SDS011;39326;42.650;23.248;2023-05-10T14:40:39;11.63;;;8.57;;
53040;SDS011;39326;42.650;23.248;2023-05-10T14:43:05;8.93;;;8.23;;
53040;SDS011;39326;42.650;23.248;2023-05-10T14:45:32;10.40;;;9.50;;
53040;SDS011;39326;42.650;23.248;2023-05-10T14:47:58;8.60;;;7.90;;
53040;SDS011;39326;42.650;23.248;2023-05-10T14:50:24;9.27;;;8.03;;
53040;SDS011;39326;42.650;23.248;2023-05-10T14:56:02;9.60;;;8.80;;
53040;SDS011;39326;42.650;23.248;2023-05-10T14:58:28;9.13;;;8.23;;
53040;SDS011;39326;42.650;23.248;2023-05-10T15:00:54;9.50;;;8.70;;
53040;SDS011;39326;42.650;23.248;2023-05-10T15:03:19;9.53;;;8.73;;
53040;SDS011;39326;42.650;23.248;2023-05-10T15:05:46;8.97;;;8.17;;
53040;SDS011;39326;42.650;23.248;2023-05-10T15:08:11;9.53;;;8.63;;
53040;SDS011;39326;42.650;23.248;2023-05-10T15:10:37;9.83;;;9.03;;
53040;SDS011;39326;42.650;23.248;2023-05-10T15:13:04;9.70;;;8.70;;